Create Custom Reports and Graphics: Custom Report

Lodi West

10 Stations

Daily Data | America/Los_Angeles
as of 7/9/20 10:19 PM PDT
Station Date Daily Max Temp (°F) Max Temp Time Daily Min Temp (°F) Min Temp Time Dew Pt (°F) Max RH (%) Min RH (%) Wind Spd (mph) Daily Max Wind (mph) Max Wind Time Max Wind Dir (°) Daily Rain (In) Seasonal Rainfall (In) Daily ETo (in) Daily Solar Rad (Cal/cm2) Powdery Mildew Stress (pts)
Claussen 7/8/20 97.0   6.7 1534 58.5   2.1 0522 53.9   3.2 81   6 25   0 4.3   1.2 15.1   5.3 1859 W | 276 0.00 0.00 0.291   0.009 759   12 0   0
Clarksburg 7/8/20 101.3   4.2 1552 54.9   3.5 0555 53.1   3.4 93   4 15   0 1.8   0.0 13.4   2.3 2333 SW | 227 0.00 0.00 0.266   0.016 760   12 0   0
Courtland-C3 7/8/20 96.0   4.7 1626 57.4   5.5 0458 53.6   3.1 82   3 22   1 3.8   1.4 15.1   0.0 1828 WSW | 252 0.00 0.00 - - 0   10
Guard Rd (Lodi WSW) 7/8/20 94.4   5.5 1608 54.1   6.3 0314 56.3   3.8 93   4 24   4 2.7   0.7 13.4   0.0 1809 W | 265 0.00 0.00 0.260   0.008 742   12 0   0
Gorter - Wilson 7/8/20 97.1   4.6 1522 50.9   0.9 0534 54.4   2.9 94   6 21   2 3.0   0.7 13.4   1.5 1825 WSW | 248 0.00 0.00 0.229   0.011 578   5 0   0
Hood 7/8/20 94.7   2.1 1616 52.5   1.0 0529 54.9   3.4 96   5 22   1 2.9   0.6 13.9   1.8 1841 WSW | 251 0.00 0.00 0.243   0.013 668   8 40   10
Pacific Fruit 7/8/20 94.1   4.4 1541 58.4   3.0 0601 55.5   3.2 84   3 24   2 4.1   1.1 16.7   0.4 1813 W | 270 0.00 0.00 0.245   0.010 636   6 0   10
Ryer Island South 7/8/20 95.8   4.6 1513 60.9   2.5 0613 51.2   2.6 71   3 17   4 3.8   0.9 15.2   2.2 1721 SW | 228 0.00 0.00 0.272   0.008 722   6 40   10
Utter - Wilson 7/8/20 96.4   0.5 1606 55.0   1.7 0608 54.6   3.0 92   7 21   1 3.3   0.9 14.2   1.2 1900 SW | 219 0.00 0.00 0.264   0.015 696   2 0   0
Clarksburg-3A2 7/8/20 97.0   3.8 1606 55.6   2.5 0547 53.5   3.1 94   5 17   0 4.7   1.0 16.1   0.1 1755 SW | 230 0.00 0.00 0.230   0.010 511   4 0   0
Max   101.3 - 60.9 - 56.3 96 25 4.7 16.7 - - 0.00 - 0.291 760 40
Avg   - - - - 54.1 - - 3.4 - - - - - - - -
Min   94.1 - 50.9 - 51.2 71 15 1.8 13.4 - - 0.00 - 0.229 511 0

Lodi Central

9 Stations

Daily Data | America/Los_Angeles
as of 7/9/20 10:19 PM PDT
Station Date Daily Max Temp (°F) Max Temp Time Daily Min Temp (°F) Min Temp Time Dew Pt (°F) Max RH (%) Min RH (%) Wind Spd (mph) Daily Max Wind (mph) Max Wind Time Max Wind Dir (°) Daily Rain (In) Seasonal Rainfall (In) Daily ETo (in) Daily Solar Rad (Cal/cm2) Powdery Mildew Stress (pts)
Galt West 7/8/20 96.1   4.2 1613 54.2   2.4 0559 53.8   3.5 86   2 18   4 2.3   1.1 12.6   2.2 1730 WSW | 254 0.00 0.00 0.259   0.011 727   5 0   0
Valley Oak 7/8/20 96.0   5.1 1636 53.0   1.3 0603 51.4   2.9 91   8 14   5 2.4   0.8 14.5   1.5 1742 W | 276 0.00 0.00 0.249   0.012 684   1 0   0
Thornton 7/8/20 95.8   5.9 1606 53.1   0.5 0549 51.7   2.5 79   4 16   7 2.3   1.7 15.5   1.7 1820 W | 269 0.00 0.00 0.250   0.001 658   9 0   0
Kost Rd 7/8/20 96.0   4.7 1607 52.4   2.5 0547 55.8   4.3 98   4 20   5 1.8   1.0 10.4   3.1 1826 WSW | 251 0.00 0.00 0.224   0.006 622   7 0   10
DeVries Road-North 7/8/20 97.3   5.8 1546 53.4   4.3 0543 53.4   2.9 87   1 18   7 2.4   1.4 11.8   0.2 1831 WNW | 292 0.00 0.00 0.247   0.004 659   13 0   0
Lodi (LangeTwins) 7/8/20 96.5   4.5 1740 53.8   4.2 0541 53.5   2.7 89   0 17   7 1.9   1.4 14.5   2.7 1821 WSW | 257 0.00 0.00 0.251   0.009 713   9 0   0
Acampo 7/8/20 95.7   5.9 1551 53.5   3.5 0551 50.9   3.0 88   2 14   5 1.8   1.3 10.8   1.7 1802 W | 280 0.00 0.00 0.250   0.004 715   5 0   0
Acampo (Woodbridge) 7/8/20 96.5   5.9 1638 56.8   5.4 0422 50.6   2.3 81   7 14   5 3.7   1.7 15.4   0.3 1437 WNW | 292 0.00 0.00 0.285   0.004 732   8 0   0
Lodi West 7/8/20 96.0   6.0 1609 57.9   7.1 0247 51.9   3.1 78   10 18   4 2.3   0.4 13.6   0.7 1750 WNW | 288 0.00 0.00 0.240   0.005 647   9 0   0
Max   97.3 - 57.9 - 55.8 98 20 3.7 15.5 - - 0.00 - 0.285 732 0
Avg   - - - - 52.6 - - 2.3 - - - - - - - -
Min   95.7 - 52.4 - 50.6 78 14 1.8 10.4 - - 0.00 - 0.224 622 0

Latest Observation

18 Stations

Daily Data | America/Los_Angeles
as of 7/9/20 10:19 PM PDT
Station Date Daily Max Temp (°F) Max Temp Time Daily Min Temp (°F) Min Temp Time Dew Pt (°F) Max RH (%) Min RH (%) Wind Spd (mph) Wind Dir (°) Daily Max Wind (mph) Max Wind Time Daily Rain (In) Seasonal Rainfall (In) Daily ETo (in) Daily Solar Rad (Cal/cm2) Powdery Mildew Stress (pts)
5 Wells 7/8/20 96.3   4.6 1750 53.8   1.8 0504 50.3   2.6 82   1 15   1 2.8   1.0 WSW | 250 13.0   0.7 1507 0.00 0.00 0.272   0.011 737   12 0   0
Borden Hills 7/8/20 98.1   4.1 1606 55.6   1.0 0602 54.4   2.6 83   2 21   0 3.5   0.1 W | 265 13.0   0.8 1850 0.00 0.00 0.266   0.017 684   9 0   0
Collegeville 7/8/20 96.5   6.5 1551 53.5   2.4 0505 52.4   3.1 94   15 13   9 2.4   1.1 NW | 318 11.7   1.9 2006 0.00 0.00 0.260   0.007 742   7 0   0
Galt-East 7/8/20 96.5   5.3 1640 53.3   2.2 0443 50.8   1.7 85   0 16   1 2.6   0.5 WSW | 258 13.4   0.4 1558 0.00 0.00 0.271   0.018 742   8 0   0
Escalon 7/8/20 97.1   7.8 1747 55.9   1.7 0601 53.8   2.6 97   16 15   8 2.1   1.0 NNW | 332 10.8   3.0 1850 0.00 0.00 - - 0   0
Victor - N (Katusha) 7/8/20 95.4   5.6 1658 53.5   5.8 0610 49.1   2.5 83   7 14   4 1.9   1.1 - 10.1   4.7 1530 0.00 0.00 - - 0   0
Gilbeau Ranch 7/8/20 96.7   4.3 1525 52.5   2.8 0536 50.6   2.8 87   2 15   0 2.1   0.6 WSW | 248 12.9   0.2 1833 0.00 0.00 0.255   0.012 708   3 0   0
Linden 7/8/20 95.3   4.8 1717 50.9   4.9 0525 54.4   3.2 99   1 15   6 1.8   0.6 WNW | 288 10.0   1.8 1839 0.00 0.00 - - 0   0
Live Oak 7/8/20 96.4   6.5 1626 54.9   5.5 0326 53.9   2.7 88   5 16   8 2.1   0.7 W | 272 13.4   0.4 1843 0.00 0.00 0.246   0.009 697   6 0   0
Lockeford 7/8/20 95.6   5.3 1707 53.0   4.6 0603 49.7   2.3 82   4 14   3 2.3   0.7 W | 263 13.8   0.0 1847 0.00 0.00 0.220   0.010 568   4 0   0
Lone Oak-L28 7/8/20 95.2   6.2 1532 50.0   4.3 0546 54.7   3.0 100   3 22   3 2.4   0.5 WSW | 237 10.4   5.0 1913 0.00 0.00 - - 0   0
Colony 1 7/8/20 96.9   3.9 1637 54.6   3.0 0538 53.1   3.3 88   0 18   1 1.9   0.4 WSW | 251 9.3   0.1 1754 0.00 0.00 0.262   0.012 750   10 0   0
Colony 2 7/8/20 98.0   3.8 1651 53.7   1.8 0550 53.2   3.6 88   0 16   0 2.4   0.5 SW | 223 12.1   0.4 1814 0.00 0.00 0.264   0.011 736   11 0   0
Sheldon 7/8/20 96.4   3.5 1609 53.1   1.9 0454 52.3   3.4 91   4 18   4 2.5   0.2 SSW | 212 11.5   0.3 1641 0.00 0.00 0.267   0.020 730   10 0   0
Sierra Loma-L27 7/8/20 97.2   4.5 1520 55.9   3.1 0600 53.3   2.8 85   1 20   0 2.9   0.5 W | 272 14.1   5.9 1850 0.00 0.00 - - 0   0
Simmerhorn 7/8/20 95.8   5.2 1605 54.3   1.9 0519 49.1   2.4 84   2 16   1 - - - - - - - - 0   0
Sloughhouse 7/8/20 97.5   5.9 1545 50.9   1.8 0552 49.3   3.0 - 16   4 2.1   0.9 WSW | 237 15.5   3.4 1820 0.00 0.00 0.206   0.043 470   6 0   0
Teresi-Alpine Rd (East Lodi) 7/8/20 96.6   5.8 1607 55.6   4.7 0557 51.0   2.4 85   3 15   5 2.7   1.1 W | 264 13.1   1.2 1548 0.00 0.00 0.267   0.007 704   9 0   0
Max   98.1 - 55.9 - 54.7 100 22 3.5 - 15.5 - 0.00 - 0.272 750 0
Avg   - - - - 52.0 - - 2.4 - - - - - - - -
Min   95.2 - 50.0 - 49.1 82 13 1.8 - 9.3 - 0.00 - 0.206 470 0